createdAt,value
2023-01-01T00:00:24.583Z,2958.80
2023-01-01T00:02:52.409Z,3261.40
2023-01-01T00:05:19.185Z,3722.40
2023-01-01T00:07:46.478Z,3583.20
2023-01-01T00:10:13.938Z,3572.60
2023-01-01T00:12:41.320Z,3957.20
2023-01-01T00:15:08.592Z,1786.80
2023-01-01T00:17:38.886Z,3802.20
2023-01-01T00:20:07.438Z,3376.00
2023-01-01T00:22:53.890Z,3032.00
2023-01-01T00:25:22.149Z,2497.80
2023-01-01T00:27:49.837Z,2275.00
2023-01-01T00:30:16.713Z,1950.40
2023-01-01T00:32:54.730Z,2997.20
2023-01-01T00:35:23.407Z,1748.25
2023-01-01T00:37:51.249Z,1279.20
2023-01-01T00:40:18.644Z,2471.25
2023-01-01T00:42:45.815Z,2511.50
2023-01-01T00:45:20.619Z,3223.60
2023-01-01T00:47:51.278Z,2977.20
2023-01-01T00:50:18.955Z,2824.60
2023-01-01T00:52:45.922Z,1845.25
2023-01-01T00:55:13.251Z,2758.40
2023-01-01T00:57:40.142Z,887.25
2023-01-01T01:00:09.017Z,1386.75
2023-01-01T01:02:36.430Z,1320.20
2023-01-01T01:05:06.649Z,1113.00
2023-01-01T01:07:36.012Z,1963.00
2023-01-01T01:10:03.812Z,1597.00
2023-01-01T01:12:30.685Z,1821.20
2023-01-01T01:14:58.332Z,2815.40
2023-01-01T01:17:25.747Z,1751.75
2023-01-01T01:19:53.333Z,1939.40
2023-01-01T01:22:28.029Z,760.75
2023-01-01T01:24:56.785Z,987.40
2023-01-01T01:27:24.094Z,1613.25
2023-01-01T01:29:51.984Z,545.50
2023-01-01T01:32:19.619Z,69.50
2023-01-01T01:34:47.048Z,1123.50
2023-01-01T01:37:14.749Z,1617.80
2023-01-01T01:39:43.776Z,1227.25
2023-01-01T01:42:16.979Z,763.40
2023-01-01T01:44:57.151Z,49.67
2023-01-01T01:47:29.536Z,53.20
2023-01-01T01:50:02.674Z,521.25
2023-01-01T01:52:33.074Z,129.75
2023-01-01T01:55:04.535Z,1706.40
2023-01-01T01:57:33.299Z,22.25
2023-01-01T02:00:08.636Z,26.00
2023-01-01T02:02:44.732Z,1588.00
2023-01-01T02:05:12.342Z,13.00
2023-01-01T02:07:40.398Z,1607.50
2023-01-01T02:10:09.835Z,14.75
2023-01-01T02:12:37.421Z,329.60
2023-01-01T02:15:06.063Z,2016.75
2023-01-01T02:17:39.644Z,716.75
2023-01-01T02:20:36.921Z,4.50
2023-01-01T02:23:30.660Z,8.75
2023-01-01T02:26:15.527Z,1111.00
2023-01-01T02:28:53.287Z,4.25
2023-01-01T02:31:26.597Z,0.50
2023-01-01T02:33:58.347Z,3.00
2023-01-01T02:36:28.765Z,413.50
2023-01-01T02:38:59.218Z,3.00
2023-01-01T02:41:30.499Z,1.25
2023-01-01T02:46:31.994Z,2.00
2023-01-01T02:49:04.687Z,17.50
2023-01-01T02:51:45.572Z,14.25
2023-01-01T02:54:25.795Z,10.25
2023-01-01T02:57:03.514Z,1.00
2023-01-01T02:59:41.078Z,9.00
2023-01-01T03:02:19.766Z,0.25
2023-01-01T03:05:03.499Z,2.00
2023-01-01T03:07:41.298Z,1.50
2023-01-01T03:10:16.052Z,0.00
2023-01-01T03:12:48.269Z,0.50
2023-01-01T03:15:24.134Z,0.75
2023-01-01T03:17:59.025Z,4.25
2023-01-01T03:20:31.454Z,9.75
2023-01-01T03:23:03.918Z,1.00
2023-01-01T03:25:34.461Z,30.33
2023-01-01T03:28:06.652Z,6.75
2023-01-01T03:30:38.715Z,10.75
2023-01-01T03:33:12.906Z,20.25
2023-01-01T03:35:47.044Z,0.25
2023-01-01T03:38:19.846Z,3.00
2023-01-01T03:40:51.766Z,11.00
2023-01-01T03:43:28.044Z,415.25
2023-01-01T03:46:00.851Z,113.00
2023-01-01T03:48:27.756Z,1.50
2023-01-01T03:51:06.436Z,3.50
2023-01-01T03:53:39.733Z,820.50
2023-01-01T03:56:16.402Z,0.00
2023-01-01T03:58:50.096Z,1.50
2023-01-01T04:01:26.376Z,2.25
2023-01-01T04:03:54.906Z,1.50
2023-01-01T04:06:22.267Z,4.00
2023-01-01T04:08:54.242Z,3.25
2023-01-01T04:11:25.419Z,6.25
2023-01-01T04:13:52.706Z,7.50
2023-01-01T04:16:21.784Z,9.00
2023-01-01T04:18:49.073Z,5.75
2023-01-01T04:21:16.608Z,3.25
2023-01-01T04:23:44.119Z,10.75
2023-01-01T04:26:13.459Z,38.75
2023-01-01T04:28:41.185Z,44.00
2023-01-01T04:31:09.242Z,7.75
2023-01-01T04:33:37.914Z,3.25
2023-01-01T04:36:06.203Z,0.75
2023-01-01T04:38:34.323Z,7.25
2023-01-01T04:41:02.308Z,15.25
2023-01-01T04:43:29.819Z,10.75
2023-01-01T04:45:57.222Z,2.00
2023-01-01T04:48:25.168Z,12.00
2023-01-01T04:50:58.000Z,2.50
2023-01-01T04:53:26.324Z,512.25
2023-01-01T04:55:53.592Z,3.00
2023-01-01T04:58:21.069Z,1.50
2023-01-01T05:00:53.459Z,3.50
2023-01-01T05:03:21.154Z,4.75
2023-01-01T05:05:51.327Z,0.50
2023-01-01T05:08:20.461Z,0.50
2023-01-01T05:10:48.072Z,2.50
2023-01-01T05:13:15.489Z,7.50
2023-01-01T05:15:42.771Z,0.25
2023-01-01T05:18:10.773Z,28.50
2023-01-01T05:20:38.038Z,1.50
2023-01-01T05:23:05.358Z,2.75
2023-01-01T05:25:34.206Z,0.00
2023-01-01T05:28:01.637Z,2.00
2023-01-01T05:30:28.933Z,0.00
2023-01-01T05:32:56.255Z,1.50
2023-01-01T05:35:26.527Z,1.00
2023-01-01T05:37:54.535Z,8.50
2023-01-01T05:40:21.914Z,0.25
2023-01-01T05:42:50.639Z,1.25
2023-01-01T05:45:18.159Z,0.00
2023-01-01T05:47:45.614Z,8.75
2023-01-01T05:52:38.730Z,1.00
2023-01-01T05:55:07.163Z,0.00
2023-01-01T05:57:34.067Z,2.00
2023-01-01T06:00:02.821Z,16.00
2023-01-01T06:02:31.689Z,6.00
2023-01-01T06:05:01.575Z,1.00
2023-01-01T06:07:28.712Z,1.25
2023-01-01T06:09:55.993Z,1.00
2023-01-01T06:12:22.773Z,8.25
2023-01-01T06:14:50.120Z,6.75
2023-01-01T06:17:19.139Z,4.50
2023-01-01T06:19:46.427Z,4.00
2023-01-01T06:22:13.693Z,5.75
2023-01-01T06:24:41.256Z,6.00
2023-01-01T06:27:08.929Z,1.00
2023-01-01T06:29:36.248Z,2.00
2023-01-01T06:32:03.913Z,4.75
2023-01-01T06:34:32.724Z,0.50
2023-01-01T06:37:04.703Z,1.00
2023-01-01T06:39:34.515Z,2.00
2023-01-01T06:42:01.778Z,1.00
2023-01-01T06:44:29.040Z,1.00
2023-01-01T06:46:55.737Z,0.00
2023-01-01T06:49:22.922Z,4.50
2023-01-01T06:51:51.707Z,5.00
2023-01-01T06:54:18.637Z,222.75
2023-01-01T06:56:45.855Z,4.00
2023-01-01T06:59:13.773Z,6.75
2023-01-01T07:01:44.376Z,1.00
2023-01-01T07:04:14.067Z,1.50
2023-01-01T07:06:42.599Z,1.00
2023-01-01T07:09:11.859Z,2.00
2023-01-01T07:11:39.109Z,19.75
2023-01-01T07:14:06.685Z,19.25
2023-01-01T07:16:34.260Z,408.00
2023-01-01T07:19:01.416Z,1.00
2023-01-01T07:21:31.644Z,9.50
2023-01-01T07:24:00.491Z,411.75
2023-01-01T07:26:30.663Z,11.00
2023-01-01T07:29:04.608Z,12.50
2023-01-01T07:31:33.907Z,20.75
2023-01-01T07:34:01.549Z,4.25
2023-01-01T07:36:28.993Z,2.00
2023-01-01T07:38:56.002Z,218.75
2023-01-01T07:41:23.368Z,407.75
2023-01-01T07:43:52.176Z,33.00
2023-01-01T07:46:19.441Z,3.25
2023-01-01T07:48:46.922Z,320.00
2023-01-01T07:51:14.267Z,1.50
2023-01-01T07:53:41.672Z,123.25
2023-01-01T07:56:09.516Z,202.25
2023-01-01T07:58:39.981Z,1.00
2023-01-01T08:01:10.470Z,2.50
2023-01-01T08:03:37.401Z,1.25
2023-01-01T08:06:08.429Z,16.25
2023-01-01T08:08:35.912Z,0.75
2023-01-01T08:11:04.068Z,0.75
2023-01-01T08:13:31.864Z,1.25
2023-01-01T08:15:59.270Z,2.25
2023-01-01T08:18:28.522Z,0.00
2023-01-01T08:20:55.887Z,0.00
2023-01-01T08:23:23.837Z,6.75
2023-01-01T08:25:51.040Z,0.00
2023-01-01T08:28:18.816Z,1.75
2023-01-01T08:30:46.469Z,0.00
2023-01-01T08:33:13.991Z,8.75
2023-01-01T08:35:45.581Z,14.50
2023-01-01T08:38:16.610Z,0.00
2023-01-01T08:40:43.896Z,0.00
2023-01-01T08:43:11.308Z,0.00
2023-01-01T08:45:39.304Z,0.50
2023-01-01T08:48:07.127Z,0.25
2023-01-01T08:50:34.463Z,0.50
2023-01-01T08:53:03.177Z,1.00
2023-01-01T08:55:30.609Z,1.00
2023-01-01T08:57:57.779Z,1.00
2023-01-01T09:00:25.132Z,4.50
2023-01-01T09:02:52.588Z,1.00
2023-01-01T09:05:20.048Z,0.00
2023-01-01T09:07:47.738Z,1.00
2023-01-01T09:10:17.628Z,5.50
2023-01-01T09:12:45.340Z,0.50
2023-01-01T09:15:16.031Z,1.00
2023-01-01T09:17:43.525Z,8.00
2023-01-01T09:20:11.083Z,1.00
2023-01-01T09:22:38.443Z,1.00
2023-01-01T09:25:06.345Z,3.50
2023-01-01T09:27:34.979Z,1.50
2023-01-01T09:30:02.763Z,1.75
2023-01-01T09:32:30.324Z,1.75
2023-01-01T09:34:57.515Z,1.25
2023-01-01T09:37:25.206Z,0.75
2023-01-01T09:39:52.586Z,1.50
2023-01-01T09:42:29.438Z,2.00
2023-01-01T09:45:18.819Z,0.50
2023-01-01T09:47:47.850Z,1.75
2023-01-01T09:50:18.953Z,10.25
2023-01-01T09:52:52.922Z,11.75
2023-01-01T09:55:27.014Z,2.00
2023-01-01T09:57:55.925Z,14.50
2023-01-01T10:00:24.817Z,37.25
2023-01-01T10:03:07.304Z,21.25
2023-01-01T10:05:49.529Z,49.20
2023-01-01T10:08:29.343Z,253.50
2023-01-01T10:11:05.573Z,1002.00
2023-01-01T10:13:38.326Z,428.75
2023-01-01T10:16:16.002Z,53.40
2023-01-01T10:18:48.617Z,819.25
2023-01-01T10:21:19.571Z,39.75
2023-01-01T10:23:50.075Z,532.25
2023-01-01T10:26:19.411Z,649.25
2023-01-01T10:28:55.185Z,42.80
2023-01-01T10:31:31.830Z,40.80
2023-01-01T10:33:58.987Z,31.50
2023-01-01T10:36:27.147Z,16.25
2023-01-01T10:38:54.394Z,5.00
2023-01-01T10:41:21.796Z,419.75
2023-01-01T10:43:50.097Z,40.50
2023-01-01T10:46:29.444Z,422.75
2023-01-01T10:49:11.192Z,29.00
2023-01-01T10:51:43.944Z,455.20
2023-01-01T10:54:33.048Z,382.20
2023-01-01T10:57:12.830Z,860.40
2023-01-01T10:59:43.096Z,476.00
2023-01-01T11:02:20.558Z,638.00
2023-01-01T11:04:49.862Z,558.00
2023-01-01T11:07:31.063Z,1264.25
2023-01-01T11:10:04.197Z,1172.40
2023-01-01T11:13:04.307Z,1186.80
2023-01-01T11:15:30.901Z,1406.80
2023-01-01T11:18:05.950Z,938.60
2023-01-01T11:20:36.781Z,72.25
2023-01-01T11:23:21.144Z,1167.20
2023-01-01T11:26:04.661Z,1432.75
2023-01-01T11:28:33.424Z,932.00
2023-01-01T11:31:08.069Z,857.00
2023-01-01T11:33:39.319Z,78.20
2023-01-01T11:36:08.397Z,650.50
2023-01-01T11:38:35.948Z,762.00
2023-01-01T11:41:06.362Z,511.00
2023-01-01T11:43:40.115Z,1281.60
2023-01-01T11:46:11.088Z,35.00
2023-01-01T11:48:42.858Z,43.50
2023-01-01T11:51:29.916Z,14.50
2023-01-01T11:54:23.122Z,57.80
2023-01-01T11:56:55.076Z,68.60
2023-01-01T11:59:27.966Z,1120.50
2023-01-01T12:01:59.541Z,45.25
2023-01-01T12:04:36.198Z,38.25
2023-01-01T12:07:08.034Z,11.25
2023-01-01T12:09:42.558Z,18.50
2023-01-01T12:12:15.975Z,231.00
2023-01-01T12:14:51.853Z,614.00
2023-01-01T12:17:25.008Z,304.50
2023-01-01T12:19:59.682Z,15.50
2023-01-01T12:22:28.500Z,16.75
2023-01-01T12:24:56.960Z,30.50
2023-01-01T12:27:47.763Z,17.25
2023-01-01T12:30:21.592Z,3.00
2023-01-01T12:33:12.947Z,10.75
2023-01-01T12:36:15.432Z,10.25
2023-01-01T12:39:18.019Z,7.50
2023-01-01T12:41:56.918Z,6.00
2023-01-01T12:44:36.872Z,12.00
2023-01-01T12:47:15.847Z,7.75
2023-01-01T12:50:08.182Z,6.00
2023-01-01T12:52:51.387Z,1.00
2023-01-01T12:55:41.547Z,3.00
2023-01-01T12:58:15.105Z,2.25
2023-01-01T13:00:46.358Z,112.25
2023-01-01T13:03:21.552Z,32.00
2023-01-01T13:05:52.661Z,8.00
2023-01-01T13:08:20.078Z,1.00
2023-01-01T13:10:49.037Z,12.50
2023-01-01T13:13:19.031Z,1.00
2023-01-01T13:15:49.235Z,5.00
2023-01-01T13:18:23.298Z,9.25
2023-01-01T13:21:03.897Z,2.33
2023-01-01T13:23:51.758Z,7.25
2023-01-01T13:26:42.981Z,209.75
2023-01-01T13:29:43.378Z,6.25
2023-01-01T13:32:13.944Z,3.25
2023-01-01T13:35:04.757Z,6.00
2023-01-01T13:37:41.853Z,391.75
2023-01-01T13:40:47.504Z,4.00
2023-01-01T13:43:30.474Z,19.00
2023-01-01T13:46:12.359Z,4.00
2023-01-01T13:49:13.197Z,0.25
2023-01-01T13:52:06.259Z,6.50
2023-01-01T13:55:18.415Z,2.67
2023-01-01T13:58:08.047Z,6.50
2023-01-01T14:00:49.634Z,0.67
2023-01-01T14:03:19.358Z,2.33
2023-01-01T14:05:50.346Z,5.00
2023-01-01T14:08:31.703Z,18.75
2023-01-01T14:11:01.932Z,398.50
2023-01-01T14:13:30.740Z,9.00
2023-01-01T14:16:00.206Z,2.33
2023-01-01T14:18:33.964Z,13.00
2023-01-01T14:21:02.213Z,5.00
2023-01-01T14:23:34.714Z,13.00
2023-01-01T14:26:06.500Z,4.00
2023-01-01T14:28:35.559Z,2.00
2023-01-01T14:31:10.771Z,3.50
2023-01-01T14:33:38.864Z,13.75
2023-01-01T14:36:14.714Z,3.75
2023-01-01T14:38:45.877Z,3.00
2023-01-01T14:41:19.572Z,498.50
2023-01-01T14:43:49.675Z,3.00
2023-01-01T14:46:19.679Z,215.50
2023-01-01T14:48:49.501Z,129.33
2023-01-01T14:51:22.280Z,14.50
2023-01-01T14:53:54.083Z,679.75
2023-01-01T14:56:27.036Z,12.00
2023-01-01T14:58:58.470Z,2.50
2023-01-01T15:01:27.216Z,4.50
2023-01-01T15:03:59.246Z,1.00
2023-01-01T15:06:27.112Z,2.00
2023-01-01T15:08:56.255Z,8.75
2023-01-01T15:11:28.766Z,1.67
2023-01-01T15:13:59.595Z,5.50
2023-01-01T15:16:27.156Z,4.50
2023-01-01T15:18:54.320Z,1.67
2023-01-01T15:21:34.654Z,1.00
2023-01-01T15:24:09.913Z,4.00
2023-01-01T15:26:42.360Z,3.50
2023-01-01T15:29:14.819Z,9.75
2023-01-01T15:31:45.183Z,4.25
2023-01-01T15:34:22.249Z,2.00
2023-01-01T15:36:50.521Z,2.25
2023-01-01T15:39:19.622Z,3.75
2023-01-01T15:41:48.130Z,2.25
2023-01-01T15:44:27.808Z,4.00
2023-01-01T15:47:05.532Z,1.25
2023-01-01T15:49:33.061Z,2.00
2023-01-01T15:52:05.315Z,3.50
2023-01-01T15:54:39.190Z,1.75
2023-01-01T15:57:17.862Z,7.25
2023-01-01T15:59:45.762Z,8.00
2023-01-01T16:02:17.490Z,3.50
2023-01-01T16:04:48.740Z,3.75
2023-01-01T16:07:19.746Z,3.00
2023-01-01T16:09:51.985Z,1.00
2023-01-01T16:12:24.546Z,4.50
2023-01-01T16:14:51.703Z,1.67
2023-01-01T16:17:20.697Z,2.00
2023-01-01T16:19:48.843Z,2.25
2023-01-01T16:22:17.595Z,1.75
2023-01-01T16:24:45.162Z,1.00
2023-01-01T16:27:14.503Z,1.75
2023-01-01T16:29:43.378Z,2.00
2023-01-01T16:32:17.342Z,5.00
2023-01-01T16:34:44.942Z,8.00
2023-01-01T16:37:11.716Z,7.00
2023-01-01T16:39:39.243Z,5.25
2023-01-01T16:42:09.981Z,5.00
2023-01-01T16:44:41.599Z,15.50
2023-01-01T16:47:08.773Z,34.00
2023-01-01T16:49:37.431Z,26.00
2023-01-01T16:52:05.086Z,23.75
2023-01-01T16:54:32.303Z,27.25
2023-01-01T16:56:59.147Z,22.25
2023-01-01T16:59:26.701Z,29.50
2023-01-01T17:01:55.715Z,420.75
2023-01-01T17:04:23.153Z,24.00
2023-01-01T17:06:51.417Z,27.50
2023-01-01T17:09:18.477Z,25.00
2023-01-01T17:11:45.763Z,34.25
2023-01-01T17:14:13.528Z,41.50
2023-01-01T17:16:41.103Z,16.25
2023-01-01T17:19:15.103Z,11.50
2023-01-01T17:21:43.841Z,13.25
2023-01-01T17:24:11.881Z,10.50
2023-01-01T17:26:39.313Z,9.50
2023-01-01T17:29:07.140Z,16.75
2023-01-01T17:31:34.613Z,8.00
2023-01-01T17:34:02.326Z,16.75
2023-01-01T17:36:31.763Z,11.00
2023-01-01T17:38:58.505Z,16.25
2023-01-01T17:41:26.207Z,8.50
2023-01-01T17:43:54.082Z,4.75
2023-01-01T17:46:24.081Z,5.50
2023-01-01T17:48:51.761Z,5.50
2023-01-01T17:51:20.091Z,10.75
2023-01-01T17:53:49.523Z,7.75
2023-01-01T17:56:18.621Z,7.50
2023-01-01T17:58:46.875Z,10.00
2023-01-01T18:01:27.892Z,16.25
2023-01-01T18:03:57.403Z,9.75
2023-01-01T18:06:25.297Z,20.50
2023-01-01T18:08:57.553Z,8.25
2023-01-01T18:11:26.450Z,3.50
2023-01-01T18:13:53.727Z,10.50
2023-01-01T18:16:21.639Z,35.25
2023-01-01T18:18:48.830Z,28.25
2023-01-01T18:21:18.707Z,29.25
2023-01-01T18:23:46.561Z,812.00
2023-01-01T18:26:15.022Z,12.00
2023-01-01T18:28:43.027Z,12.25
2023-01-01T18:31:12.745Z,12.00
2023-01-01T18:33:41.121Z,9.00
2023-01-01T18:36:10.855Z,8.00
2023-01-01T18:38:38.394Z,7.75
2023-01-01T18:41:24.021Z,8.00
2023-01-01T18:43:51.860Z,17.50
2023-01-01T18:46:20.194Z,19.50
2023-01-01T18:48:47.968Z,17.50
2023-01-01T18:51:22.348Z,14.25
2023-01-01T18:53:51.547Z,19.00
2023-01-01T18:56:20.405Z,15.00
2023-01-01T18:58:47.828Z,16.75
2023-01-01T19:01:17.903Z,13.00
2023-01-01T19:03:48.456Z,30.25
2023-01-01T19:06:26.912Z,22.00
2023-01-01T19:09:02.865Z,15.50
2023-01-01T19:11:32.932Z,32.00
2023-01-01T19:14:12.625Z,16.75
2023-01-01T19:16:40.141Z,9.75
2023-01-01T19:19:16.670Z,23.75
2023-01-01T19:21:51.041Z,25.00
2023-01-01T19:24:26.863Z,24.00
2023-01-01T19:27:00.266Z,24.75
2023-01-01T19:29:30.756Z,19.25
2023-01-01T19:31:58.791Z,16.50
2023-01-01T19:34:26.377Z,26.75
2023-01-01T19:36:54.233Z,34.75
2023-01-01T19:39:21.369Z,466.50
2023-01-01T19:41:48.571Z,61.00
2023-01-01T19:44:24.530Z,33.25
2023-01-01T19:46:52.406Z,30.50
2023-01-01T19:49:20.140Z,48.25
2023-01-01T19:51:47.455Z,92.60
2023-01-01T19:54:14.957Z,119.20
2023-01-01T19:56:41.732Z,94.50
2023-01-01T19:59:08.481Z,90.25
2023-01-01T20:01:37.212Z,1291.60
2023-01-01T20:04:04.737Z,102.60
2023-01-01T20:06:32.388Z,101.00
2023-01-01T20:08:59.882Z,495.80
2023-01-01T20:11:27.607Z,966.25
2023-01-01T20:13:55.334Z,80.60
2023-01-01T20:16:22.105Z,61.75
2023-01-01T20:18:51.333Z,82.80
2023-01-01T20:21:25.662Z,465.40
2023-01-01T20:23:54.226Z,60.20
2023-01-01T20:26:21.098Z,66.50
2023-01-01T20:28:48.414Z,322.40
2023-01-01T20:31:15.267Z,287.50
2023-01-01T20:33:42.464Z,82.00
2023-01-01T20:36:10.661Z,84.80
2023-01-01T20:38:40.338Z,84.75
2023-01-01T20:41:08.122Z,81.00
2023-01-01T20:43:35.551Z,233.60
2023-01-01T20:46:02.923Z,939.00
2023-01-01T20:48:30.106Z,857.60
2023-01-01T20:50:57.370Z,470.20
2023-01-01T20:53:26.174Z,1440.40
2023-01-01T20:55:53.723Z,955.80
2023-01-01T20:58:21.198Z,1856.60
2023-01-01T21:00:48.569Z,883.00
2023-01-01T21:03:16.410Z,593.50
2023-01-01T21:05:43.790Z,1982.00
2023-01-01T21:08:12.139Z,804.80
2023-01-01T21:10:41.242Z,1520.40
2023-01-01T21:13:08.434Z,97.80
2023-01-01T21:15:35.961Z,258.80
2023-01-01T21:18:11.227Z,400.75
2023-01-01T21:20:43.597Z,1270.40
2023-01-01T21:23:15.639Z,667.40
2023-01-01T21:25:51.704Z,263.60
2023-01-01T21:28:20.136Z,107.80
2023-01-01T21:30:50.637Z,104.40
2023-01-01T21:33:25.908Z,2701.20
2023-01-01T21:35:53.408Z,1845.60
2023-01-01T21:38:24.995Z,2035.40
2023-01-01T21:40:55.765Z,755.40
2023-01-01T21:43:34.516Z,1692.25
2023-01-01T21:46:28.622Z,1449.80
2023-01-01T21:48:58.756Z,620.00
2023-01-01T21:51:28.191Z,2481.60
2023-01-01T21:54:17.165Z,1069.80
2023-01-01T21:56:52.308Z,1381.60
2023-01-01T21:59:25.024Z,570.00
2023-01-01T22:01:54.518Z,105.25
2023-01-01T22:04:24.634Z,595.40
2023-01-01T22:06:55.150Z,1373.00
2023-01-01T22:09:23.824Z,2689.00
2023-01-01T22:11:57.967Z,1908.20
2023-01-01T22:14:27.852Z,2008.20
2023-01-01T22:16:56.133Z,655.40
2023-01-01T22:19:28.139Z,604.00
2023-01-01T22:21:55.707Z,1780.20
2023-01-01T22:24:31.483Z,2469.25
2023-01-01T22:27:18.233Z,2313.60
2023-01-01T22:29:46.649Z,1670.20
2023-01-01T22:32:18.890Z,1110.40
2023-01-01T22:34:46.337Z,3411.20
2023-01-01T22:37:18.946Z,1305.25
2023-01-01T22:39:46.427Z,1053.80
2023-01-01T22:42:18.183Z,707.20
2023-01-01T22:44:53.975Z,2165.00
2023-01-01T22:47:21.669Z,725.40
2023-01-01T22:49:51.187Z,1595.60
2023-01-01T22:52:18.807Z,491.00
2023-01-01T22:54:46.062Z,1198.50
2023-01-01T22:57:14.081Z,477.20
2023-01-01T22:59:41.534Z,92.40
2023-01-01T23:02:08.926Z,500.00
2023-01-01T23:04:36.287Z,99.00
2023-01-01T23:07:05.145Z,98.80
2023-01-01T23:09:33.175Z,1123.00
2023-01-01T23:12:01.290Z,878.60
2023-01-01T23:14:34.346Z,892.60
2023-01-01T23:17:05.767Z,1262.40
2023-01-01T23:19:33.197Z,2663.50
2023-01-01T23:22:02.008Z,1102.00
2023-01-01T23:24:31.239Z,2140.00
2023-01-01T23:27:00.803Z,3202.40
2023-01-01T23:29:32.140Z,2194.25
2023-01-01T23:32:00.194Z,1838.25
2023-01-01T23:34:28.320Z,981.00
2023-01-01T23:36:56.318Z,1208.20
2023-01-01T23:39:23.500Z,2191.75
2023-01-01T23:41:51.680Z,296.75
2023-01-01T23:44:19.115Z,1702.00
2023-01-01T23:46:48.156Z,1096.00
2023-01-01T23:49:16.214Z,904.00
2023-01-01T23:51:43.561Z,410.20
2023-01-01T23:54:10.884Z,1109.00
2023-01-01T23:56:38.364Z,1714.60
2023-01-01T23:59:05.668Z,2222.25
